Amber, New York
Current Conditions -  °F | °C
As of 11:54 AM on Sunday 23 Nov 2014 (Local Time) from KSYR Reporting Station
Overcast Overcast  
Wind Chill: 13°   Ceiling: 6000
Heat Index: 13°   Visibility: 10mi
Dew Point:   Wind: 7mph
Humidity: 55%   Direction: 200°SSW
Pressure: 30.05"   Gusts: NA
Location:  42.889°N, 76.2819°W
Report Text: KSYR 231654Z 20006KT 10SM FEW040 BKN060 OVC140 13/04 A3005 RMK AO2 SLP174 T01280039 $
Loading
Personal Weather Stations






























Interactive Weather Map New forecast layout! Learn more

10-Day Weather Forecast

Advertisements
Track Severe Weather on mobile